createdAt,value
2019-05-12T00:00:52.550Z,0.90
2019-05-12T00:03:19.073Z,0.80
2019-05-12T00:05:45.409Z,1.00
2019-05-12T00:08:11.590Z,1.00
2019-05-12T00:10:38.687Z,1.00
2019-05-12T00:13:05.324Z,1.20
2019-05-12T00:15:31.497Z,1.17
2019-05-12T00:17:58.681Z,1.00
2019-05-12T00:20:25.268Z,1.20
2019-05-12T00:22:53.351Z,1.10
2019-05-12T00:25:19.509Z,1.20
2019-05-12T00:27:48.271Z,0.73
2019-05-12T00:30:19.151Z,0.97
2019-05-12T00:32:47.733Z,1.10
2019-05-12T00:35:13.408Z,0.90
2019-05-12T00:37:39.560Z,1.10
2019-05-12T00:40:08.203Z,1.47
2019-05-12T00:42:34.162Z,1.40
2019-05-12T00:45:00.323Z,1.60
2019-05-12T00:47:28.058Z,1.90
2019-05-12T00:49:54.480Z,1.73
2019-05-12T00:52:20.636Z,1.30
2019-05-12T00:54:48.228Z,1.40
2019-05-12T00:57:14.619Z,1.53
2019-05-12T00:59:40.892Z,1.50
2019-05-12T01:02:07.981Z,1.47
2019-05-12T01:07:08.522Z,1.53
2019-05-12T01:09:34.515Z,1.27
2019-05-12T01:12:00.694Z,1.50
2019-05-12T01:14:27.858Z,2.00
2019-05-12T01:16:54.237Z,1.70
2019-05-12T01:19:20.406Z,1.87
2019-05-12T01:21:48.171Z,2.47
2019-05-12T01:24:14.583Z,2.57
2019-05-12T01:26:40.769Z,3.67
2019-05-12T01:29:08.445Z,3.27
2019-05-12T01:31:37.814Z,2.53
2019-05-12T01:34:04.080Z,2.70
2019-05-12T01:36:30.288Z,2.20
2019-05-12T01:39:01.601Z,2.00
2019-05-12T01:41:24.507Z,2.03
2019-05-12T01:43:50.717Z,2.40
2019-05-12T01:46:18.101Z,2.60
2019-05-12T01:48:44.457Z,3.27
2019-05-12T01:51:10.674Z,3.30
2019-05-12T01:53:37.854Z,3.03
2019-05-12T01:56:04.176Z,4.73
2019-05-12T01:58:30.381Z,4.77
2019-05-12T02:00:58.687Z,6.33
2019-05-12T02:03:24.606Z,5.03
2019-05-12T02:05:52.732Z,5.80
2019-05-12T02:08:20.787Z,5.77
2019-05-12T02:10:48.094Z,6.20
2019-05-12T02:13:14.566Z,6.50
2019-05-12T02:15:40.824Z,4.23
2019-05-12T02:18:09.025Z,3.80
2019-05-12T02:20:35.095Z,3.57
2019-05-12T02:23:01.263Z,2.83
2019-05-12T02:25:28.704Z,2.10
2019-05-12T02:27:55.235Z,2.83
2019-05-12T02:30:21.391Z,2.57
2019-05-12T02:32:52.370Z,2.67
2019-05-12T02:35:16.296Z,2.93
2019-05-12T02:37:45.226Z,2.40
2019-05-12T02:40:15.131Z,2.27
2019-05-12T02:42:41.135Z,3.23
2019-05-12T02:45:07.700Z,2.40
2019-05-12T02:47:34.739Z,1.90
2019-05-12T02:50:05.132Z,2.47
2019-05-12T02:52:30.153Z,1.90
2019-05-12T02:55:00.465Z,2.00
2019-05-12T02:57:26.929Z,2.47
2019-05-12T02:59:54.216Z,2.33
2019-05-12T03:02:24.501Z,2.40
2019-05-12T03:04:54.816Z,3.20
2019-05-12T03:07:25.490Z,2.97
2019-05-12T03:09:51.235Z,3.33
2019-05-12T03:12:17.450Z,2.97
2019-05-12T03:14:44.800Z,2.90
2019-05-12T03:17:11.077Z,2.80
2019-05-12T03:19:37.268Z,3.17
2019-05-12T03:22:05.028Z,2.83
2019-05-12T03:24:34.018Z,3.33
2019-05-12T03:26:59.613Z,3.87
2019-05-12T03:29:26.599Z,3.70
2019-05-12T03:31:57.038Z,3.70
2019-05-12T03:34:21.203Z,3.70
2019-05-12T03:36:51.662Z,3.10
2019-05-12T03:39:15.561Z,3.30
2019-05-12T03:41:44.347Z,2.60
2019-05-12T03:44:09.844Z,2.23
2019-05-12T03:46:35.997Z,2.27
2019-05-12T03:49:05.212Z,2.23
2019-05-12T03:51:30.373Z,2.97
2019-05-12T03:53:56.558Z,3.10
2019-05-12T03:56:26.015Z,2.47
2019-05-12T03:58:53.898Z,2.33
2019-05-12T04:01:19.002Z,2.10
2019-05-12T04:03:45.437Z,2.63
2019-05-12T04:06:15.124Z,2.37
2019-05-12T04:08:39.862Z,2.47
2019-05-12T04:11:06.056Z,2.27
2019-05-12T04:13:34.197Z,2.43
2019-05-12T04:16:00.289Z,1.93
2019-05-12T04:18:26.500Z,2.17
2019-05-12T04:20:54.468Z,1.70
2019-05-12T04:23:20.759Z,1.70
2019-05-12T04:25:52.763Z,1.60
2019-05-12T04:28:15.379Z,1.60
2019-05-12T04:30:44.320Z,1.70
2019-05-12T04:33:09.827Z,1.60
2019-05-12T04:35:36.175Z,1.90
2019-05-12T04:38:04.310Z,1.80
2019-05-12T04:40:30.542Z,1.70
2019-05-12T04:42:56.699Z,1.30
2019-05-12T04:45:25.525Z,1.47
2019-05-12T04:47:51.140Z,1.60
2019-05-12T04:50:17.309Z,1.73
2019-05-12T04:52:44.594Z,1.60
2019-05-12T04:55:11.186Z,1.40
2019-05-12T04:57:39.231Z,1.90
2019-05-12T05:00:06.124Z,1.70
2019-05-12T05:02:36.388Z,2.00
2019-05-12T05:05:00.648Z,2.00
2019-05-12T05:07:26.803Z,2.00
2019-05-12T05:09:54.846Z,2.03
2019-05-12T05:12:23.739Z,2.53
2019-05-12T05:14:49.127Z,2.00
2019-05-12T05:17:15.335Z,1.33
2019-05-12T05:19:41.483Z,1.50
2019-05-12T05:22:07.954Z,2.57
2019-05-12T05:24:34.138Z,2.40
2019-05-12T05:27:00.291Z,2.30
2019-05-12T05:29:26.570Z,1.83
2019-05-12T05:31:53.374Z,1.20
2019-05-12T05:34:19.929Z,1.20
2019-05-12T05:36:46.140Z,1.23
2019-05-12T05:39:13.934Z,1.40
2019-05-12T05:41:46.446Z,1.30
2019-05-12T05:44:08.362Z,1.10
2019-05-12T05:46:39.093Z,1.30
2019-05-12T05:49:04.244Z,1.20
2019-05-12T05:51:30.561Z,1.10
2019-05-12T05:53:57.081Z,1.30
2019-05-12T05:56:38.407Z,1.30
2019-05-12T05:58:52.419Z,1.20
2019-05-12T06:01:19.421Z,1.23
2019-05-12T06:03:45.573Z,1.20
2019-05-12T06:06:14.629Z,1.43
2019-05-12T06:08:39.846Z,1.40
2019-05-12T06:11:08.564Z,1.30
2019-05-12T06:13:34.618Z,1.20
2019-05-12T06:16:01.086Z,1.40
2019-05-12T06:18:29.053Z,1.50
2019-05-12T06:20:55.304Z,1.30
2019-05-12T06:23:23.904Z,1.40
2019-05-12T06:25:51.509Z,1.40
2019-05-12T06:28:17.633Z,1.43
2019-05-12T06:30:47.104Z,1.47
2019-05-12T06:33:14.250Z,1.67
2019-05-12T06:35:42.215Z,1.30
2019-05-12T06:38:08.107Z,1.83
2019-05-12T06:40:40.253Z,1.33
2019-05-12T06:43:04.398Z,1.40
2019-05-12T06:45:36.538Z,1.30
2019-05-12T06:47:58.926Z,1.60
2019-05-12T06:50:28.696Z,1.57
2019-05-12T06:52:53.211Z,1.20
2019-05-12T06:55:19.366Z,1.40
2019-05-12T06:57:49.997Z,1.60
2019-05-12T07:00:14.589Z,1.10
2019-05-12T07:02:50.070Z,1.50
2019-05-12T07:05:09.429Z,1.20
2019-05-12T07:07:42.116Z,1.30
2019-05-12T07:10:11.652Z,0.90
2019-05-12T07:12:43.620Z,1.20
2019-05-12T07:15:03.846Z,0.90
2019-05-12T07:17:43.454Z,1.00
2019-05-12T07:20:06.532Z,1.00
2019-05-12T07:22:43.744Z,1.00
2019-05-12T07:25:00.774Z,1.10
2019-05-12T07:27:36.680Z,1.10
2019-05-12T07:29:55.034Z,1.00
2019-05-12T07:32:22.293Z,1.00
2019-05-12T07:34:49.381Z,1.07
2019-05-12T07:37:17.757Z,1.17
2019-05-12T07:39:49.452Z,1.00
2019-05-12T07:42:15.056Z,1.23
2019-05-12T07:44:44.091Z,1.10
2019-05-12T07:47:10.404Z,1.20
2019-05-12T07:49:38.550Z,1.07
2019-05-12T07:52:04.691Z,1.07
2019-05-12T07:54:37.355Z,1.07
2019-05-12T07:57:05.322Z,0.70
2019-05-12T07:59:37.847Z,1.30
2019-05-12T08:01:55.220Z,1.10
2019-05-12T08:04:23.808Z,0.70
2019-05-12T08:06:49.553Z,0.90
2019-05-12T08:09:15.722Z,0.80
2019-05-12T08:11:43.414Z,0.80
2019-05-12T08:14:15.448Z,1.00
2019-05-12T08:16:37.947Z,0.80
2019-05-12T08:19:04.219Z,0.80
2019-05-12T08:21:34.877Z,0.70
2019-05-12T08:23:58.491Z,0.90
2019-05-12T08:26:24.681Z,0.80
2019-05-12T08:28:50.849Z,0.60
2019-05-12T08:31:17.022Z,0.80
2019-05-12T08:33:43.757Z,0.80
2019-05-12T08:36:11.737Z,0.97
2019-05-12T08:38:38.366Z,0.87
2019-05-12T08:41:04.629Z,0.87
2019-05-12T08:43:30.786Z,0.77
2019-05-12T08:46:00.167Z,0.70
2019-05-12T08:48:25.360Z,0.90
2019-05-12T08:50:53.956Z,1.03
2019-05-12T08:53:22.785Z,0.70
2019-05-12T08:55:48.147Z,0.93
2019-05-12T08:58:29.762Z,0.80
2019-05-12T09:00:46.442Z,0.90
2019-05-12T09:03:10.663Z,0.90
2019-05-12T09:05:38.500Z,1.20
2019-05-12T09:08:04.905Z,0.90
2019-05-12T09:10:31.102Z,1.13
2019-05-12T09:12:57.273Z,1.00
2019-05-12T09:15:23.999Z,1.00
2019-05-12T09:17:54.589Z,0.90
2019-05-12T09:20:18.813Z,0.90
2019-05-12T09:22:44.990Z,1.00
2019-05-12T09:25:11.176Z,0.80
2019-05-12T09:27:39.568Z,0.90
2019-05-12T09:30:09.698Z,0.90
2019-05-12T09:32:34.005Z,0.90
2019-05-12T09:35:00.336Z,0.90
2019-05-12T09:37:31.007Z,1.03
2019-05-12T09:39:54.667Z,0.90
2019-05-12T09:42:25.703Z,0.80
2019-05-12T09:44:48.977Z,0.90
2019-05-12T09:47:23.307Z,1.00
2019-05-12T09:49:44.396Z,1.10
2019-05-12T09:52:14.067Z,1.00
2019-05-12T09:54:40.830Z,0.90
2019-05-12T09:57:07.214Z,0.70
2019-05-12T09:59:33.689Z,0.90
2019-05-12T10:02:00.115Z,1.10
2019-05-12T10:04:26.265Z,1.07
2019-05-12T10:06:53.502Z,1.10
2019-05-12T10:09:20.121Z,1.17
2019-05-12T10:11:53.965Z,0.90
2019-05-12T10:14:14.506Z,0.90
2019-05-12T10:16:45.677Z,0.70
2019-05-12T10:19:08.802Z,1.10
2019-05-12T10:21:36.026Z,1.00
2019-05-12T10:24:04.955Z,1.00
2019-05-12T10:26:30.654Z,1.10
2019-05-12T10:28:58.317Z,0.90
2019-05-12T10:31:29.538Z,0.87
2019-05-12T10:33:57.144Z,0.80
2019-05-12T10:36:22.942Z,1.00
2019-05-12T10:38:49.135Z,1.10
2019-05-12T10:41:15.319Z,0.97
2019-05-12T10:43:43.351Z,0.90
2019-05-12T10:46:09.628Z,0.93
2019-05-12T10:48:35.895Z,0.97
2019-05-12T10:51:02.082Z,0.80
2019-05-12T10:53:28.413Z,0.83
2019-05-12T10:55:54.584Z,0.70
2019-05-12T10:58:20.782Z,0.80
2019-05-12T11:00:47.101Z,0.80
2019-05-12T11:03:15.524Z,0.70
2019-05-12T11:05:43.921Z,0.80
2019-05-12T11:08:11.326Z,0.90
2019-05-12T11:10:37.800Z,0.70
2019-05-12T11:13:08.751Z,0.90
2019-05-12T11:15:34.222Z,0.90
2019-05-12T11:18:02.033Z,0.70
2019-05-12T11:20:28.292Z,0.83
2019-05-12T11:22:54.521Z,1.30
2019-05-12T11:25:20.681Z,0.80
2019-05-12T11:27:46.899Z,1.00
2019-05-12T11:30:13.508Z,0.90
2019-05-12T11:32:39.679Z,0.70
2019-05-12T11:35:06.161Z,1.00
2019-05-12T11:37:33.797Z,0.80
2019-05-12T11:40:00.245Z,0.90
2019-05-12T11:42:26.540Z,1.10
2019-05-12T11:44:52.830Z,1.10
2019-05-12T11:47:24.200Z,0.80
2019-05-12T11:49:47.147Z,0.97
2019-05-12T11:52:18.489Z,0.80
2019-05-12T11:54:47.229Z,0.90
2019-05-12T11:57:09.916Z,0.77
2019-05-12T11:59:36.126Z,1.00
2019-05-12T12:02:02.401Z,0.87
2019-05-12T12:04:30.474Z,1.00
2019-05-12T12:06:56.725Z,1.03
2019-05-12T12:09:23.220Z,1.00
2019-05-12T12:11:54.669Z,0.90
2019-05-12T12:14:17.500Z,0.80
2019-05-12T12:16:50.235Z,0.80
2019-05-12T12:19:11.739Z,0.90
2019-05-12T12:21:40.481Z,0.90
2019-05-12T12:24:06.143Z,1.00
2019-05-12T12:26:34.931Z,1.00
2019-05-12T12:29:00.523Z,0.90
2019-05-12T12:31:29.782Z,0.90
2019-05-12T12:33:56.681Z,1.00
2019-05-12T12:36:23.652Z,0.70
2019-05-12T12:38:50.086Z,0.87
2019-05-12T12:41:16.251Z,0.80
2019-05-12T12:43:43.290Z,0.77
2019-05-12T12:46:18.075Z,0.73
2019-05-12T12:48:43.970Z,0.70
2019-05-12T12:51:10.415Z,0.80
2019-05-12T12:53:36.589Z,0.90
2019-05-12T12:56:04.316Z,0.90
2019-05-12T12:58:31.570Z,0.80
2019-05-12T13:00:59.202Z,0.83
2019-05-12T13:03:29.630Z,0.90
2019-05-12T13:05:54.272Z,0.90
2019-05-12T13:08:22.339Z,0.70
2019-05-12T13:10:51.345Z,0.83
2019-05-12T13:13:16.734Z,1.00
2019-05-12T13:15:44.374Z,1.20
2019-05-12T13:18:17.909Z,1.50
2019-05-12T13:20:39.088Z,1.60
2019-05-12T13:23:05.276Z,1.63
2019-05-12T13:25:33.528Z,1.50
2019-05-12T13:28:01.473Z,1.77
2019-05-12T13:30:27.637Z,1.70
2019-05-12T13:32:53.799Z,1.30
2019-05-12T13:35:20.493Z,1.50
2019-05-12T13:37:50.345Z,1.60
2019-05-12T13:40:14.959Z,1.77
2019-05-12T13:42:41.172Z,1.27
2019-05-12T13:45:08.067Z,1.40
2019-05-12T13:47:39.516Z,1.17
2019-05-12T13:50:04.559Z,1.50
2019-05-12T13:52:33.112Z,1.53
2019-05-12T13:55:00.116Z,1.40
2019-05-12T13:57:26.896Z,1.30
2019-05-12T14:00:05.754Z,1.50
2019-05-12T14:02:23.538Z,1.70
2019-05-12T14:04:49.946Z,1.53
2019-05-12T14:07:20.072Z,1.40
2019-05-12T14:09:44.499Z,1.50
2019-05-12T14:12:13.396Z,1.77
2019-05-12T14:14:39.485Z,1.60
2019-05-12T14:17:05.647Z,1.60
2019-05-12T14:19:35.632Z,1.30
2019-05-12T14:21:59.974Z,1.17
2019-05-12T14:24:26.149Z,1.50
2019-05-12T14:26:53.368Z,1.37
2019-05-12T14:29:20.607Z,1.30
2019-05-12T14:31:54.945Z,1.60
2019-05-12T14:34:20.782Z,1.70
2019-05-12T14:36:44.309Z,1.60
2019-05-12T14:39:13.144Z,1.73
2019-05-12T14:41:44.357Z,1.73
2019-05-12T14:44:07.182Z,1.40
2019-05-12T14:46:33.481Z,1.90
2019-05-12T14:48:59.677Z,1.87
2019-05-12T14:51:25.855Z,1.50
2019-05-12T14:53:53.554Z,1.50
2019-05-12T14:56:19.936Z,1.60
2019-05-12T14:58:50.287Z,1.70
2019-05-12T15:01:14.418Z,1.50
2019-05-12T15:03:42.251Z,1.83
2019-05-12T15:06:08.769Z,1.50
2019-05-12T15:08:37.158Z,1.77
2019-05-12T15:11:03.988Z,1.70
2019-05-12T15:13:30.243Z,1.40
2019-05-12T15:16:00.108Z,1.60
2019-05-12T15:18:24.512Z,1.53
2019-05-12T15:20:51.668Z,1.77
2019-05-12T15:23:17.967Z,2.13
2019-05-12T15:25:44.160Z,1.60
2019-05-12T15:28:10.351Z,1.80
2019-05-12T15:30:36.508Z,1.77
2019-05-12T15:33:04.544Z,1.60
2019-05-12T15:35:30.802Z,1.57
2019-05-12T15:37:56.957Z,1.50
2019-05-12T15:40:23.798Z,2.20
2019-05-12T15:42:50.121Z,1.83
2019-05-12T15:45:17.068Z,1.50
2019-05-12T15:47:44.499Z,1.70
2019-05-12T15:50:14.746Z,1.67
2019-05-12T15:52:42.461Z,1.70
2019-05-12T15:55:09.223Z,1.80
2019-05-12T15:57:35.394Z,1.37
2019-05-12T16:00:06.774Z,1.60
2019-05-12T16:02:34.106Z,1.80
2019-05-12T16:05:00.550Z,1.57
2019-05-12T16:07:29.602Z,1.67
2019-05-12T16:09:55.502Z,1.80
2019-05-12T16:12:26.121Z,2.00
2019-05-12T16:14:50.231Z,2.23
2019-05-12T16:17:24.832Z,2.10
2019-05-12T16:19:45.109Z,1.90
2019-05-12T16:22:13.979Z,1.83
2019-05-12T16:24:43.412Z,1.83
2019-05-12T16:27:08.618Z,2.17
2019-05-12T16:29:39.050Z,1.90
2019-05-12T16:32:04.562Z,1.60
2019-05-12T16:34:36.204Z,1.63
2019-05-12T16:36:59.413Z,1.87
2019-05-12T16:39:30.296Z,2.10
2019-05-12T16:41:54.483Z,2.17
2019-05-12T16:44:23.030Z,2.13
2019-05-12T16:46:49.467Z,2.50
2019-05-12T16:49:16.073Z,1.93
2019-05-12T16:51:43.795Z,2.23
2019-05-12T16:54:10.718Z,2.37
2019-05-12T16:56:39.644Z,2.80
2019-05-12T16:59:15.037Z,2.60
2019-05-12T17:01:34.400Z,2.63
2019-05-12T17:04:00.558Z,2.80
2019-05-12T17:06:28.694Z,2.20
2019-05-12T17:08:54.832Z,2.50
2019-05-12T17:11:29.745Z,2.10
2019-05-12T17:13:56.732Z,2.37
2019-05-12T17:16:17.200Z,2.10
2019-05-12T17:18:44.351Z,2.07
2019-05-12T17:21:10.837Z,1.90
2019-05-12T17:23:37.046Z,1.80
2019-05-12T17:26:05.576Z,1.80
2019-05-12T17:28:34.154Z,2.00
2019-05-12T17:30:59.848Z,2.10
2019-05-12T17:33:27.646Z,2.30
2019-05-12T17:35:54.198Z,2.60
2019-05-12T17:38:22.462Z,4.37
2019-05-12T17:40:50.265Z,6.70
2019-05-12T17:43:16.645Z,2.20
2019-05-12T17:45:44.294Z,2.50
2019-05-12T17:48:10.635Z,2.60
2019-05-12T17:50:40.430Z,2.27
2019-05-12T17:53:05.245Z,2.30
2019-05-12T17:55:31.386Z,2.70
2019-05-12T17:57:57.949Z,1.93
2019-05-12T18:00:25.143Z,2.43
2019-05-12T18:02:56.252Z,2.20
2019-05-12T18:05:19.553Z,2.70
2019-05-12T18:07:51.073Z,2.40
2019-05-12T18:10:14.125Z,2.07
2019-05-12T18:12:44.859Z,2.20
2019-05-12T18:15:09.829Z,2.37
2019-05-12T18:17:38.974Z,1.90
2019-05-12T18:20:06.387Z,2.10
2019-05-12T18:22:33.949Z,1.93
2019-05-12T18:25:00.160Z,1.70
2019-05-12T18:27:26.353Z,1.80
2019-05-12T18:29:53.611Z,2.30
2019-05-12T18:32:20.218Z,1.73
2019-05-12T18:34:46.555Z,1.60
2019-05-12T18:37:13.617Z,1.90
2019-05-12T18:39:40.622Z,2.33
2019-05-12T18:42:07.135Z,2.60
2019-05-12T18:44:33.494Z,2.40
2019-05-12T18:46:59.804Z,3.08
2019-05-12T18:49:25.985Z,2.90
2019-05-12T18:51:55.189Z,2.40
2019-05-12T18:54:20.276Z,1.80
2019-05-12T18:56:52.452Z,2.67
2019-05-12T18:59:16.413Z,2.63
2019-05-12T19:01:43.592Z,2.43
2019-05-12T19:04:10.041Z,2.57
2019-05-12T19:06:36.248Z,2.40
2019-05-12T19:09:04.907Z,2.47
2019-05-12T19:11:37.255Z,2.47
2019-05-12T19:13:59.193Z,1.90
2019-05-12T19:16:25.462Z,2.17
2019-05-12T19:18:55.379Z,2.20
2019-05-12T19:21:20.310Z,2.67
2019-05-12T19:23:46.606Z,2.40
2019-05-12T19:26:13.538Z,2.40
2019-05-12T19:28:44.372Z,2.20
2019-05-12T19:31:10.084Z,2.40
2019-05-12T19:33:36.119Z,2.73
2019-05-12T19:36:05.383Z,2.23
2019-05-12T19:38:30.374Z,2.00
2019-05-12T19:41:00.670Z,2.20
2019-05-12T19:43:24.633Z,1.80
2019-05-12T19:45:53.539Z,1.77
2019-05-12T19:48:24.853Z,1.57
2019-05-12T19:50:52.872Z,1.57
2019-05-12T19:53:15.043Z,1.90
2019-05-12T19:55:41.220Z,1.67
2019-05-12T19:58:11.057Z,1.90
2019-05-12T20:00:35.514Z,2.20
2019-05-12T20:03:01.669Z,2.13
2019-05-12T20:05:27.883Z,2.63
2019-05-12T20:07:54.141Z,2.33
2019-05-12T20:10:20.295Z,2.43
2019-05-12T20:12:48.684Z,2.30
2019-05-12T20:15:15.291Z,2.00
2019-05-12T20:17:44.428Z,2.20
2019-05-12T20:20:10.139Z,2.03
2019-05-12T20:22:36.308Z,2.30
2019-05-12T20:25:04.524Z,2.17
2019-05-12T20:27:30.776Z,2.60
2019-05-12T20:29:56.949Z,2.30
2019-05-12T20:32:24.058Z,1.87
2019-05-12T20:34:52.977Z,2.10
2019-05-12T20:37:18.697Z,2.07
2019-05-12T20:39:51.256Z,1.90
2019-05-12T20:42:14.892Z,1.97
2019-05-12T20:44:41.021Z,2.00
2019-05-12T20:47:07.201Z,2.20
2019-05-12T20:49:33.742Z,1.70
2019-05-12T20:52:03.856Z,1.87
2019-05-12T20:54:28.233Z,1.70
2019-05-12T20:57:02.156Z,2.30
2019-05-12T20:59:27.968Z,2.23
2019-05-12T21:01:51.020Z,2.10
2019-05-12T21:04:22.039Z,2.10
2019-05-12T21:06:48.366Z,2.40
2019-05-12T21:09:14.441Z,2.30
2019-05-12T21:11:41.105Z,2.10
2019-05-12T21:14:10.420Z,2.20
2019-05-12T21:16:38.858Z,2.40
2019-05-12T21:19:10.181Z,2.30
2019-05-12T21:21:34.252Z,1.97
2019-05-12T21:23:59.927Z,2.03
2019-05-12T21:26:28.395Z,1.83
2019-05-12T21:28:54.232Z,2.07
2019-05-12T21:31:25.540Z,1.70
2019-05-12T21:33:48.498Z,2.07
2019-05-12T21:36:23.951Z,1.90
2019-05-12T21:38:42.741Z,2.10
2019-05-12T21:41:10.110Z,2.30
2019-05-12T21:43:36.611Z,2.23
2019-05-12T21:46:07.726Z,2.00
2019-05-12T21:48:30.873Z,2.03
2019-05-12T21:50:57.056Z,2.20
2019-05-12T21:53:23.869Z,2.10
2019-05-12T21:55:57.674Z,1.80
2019-05-12T21:58:18.488Z,1.70
2019-05-12T22:00:50.327Z,1.90
2019-05-12T22:03:17.232Z,2.10
2019-05-12T22:05:51.532Z,1.97
2019-05-12T22:08:20.829Z,1.93
2019-05-12T22:10:43.561Z,2.13
2019-05-12T22:13:14.567Z,2.03
2019-05-12T22:15:39.021Z,2.27
2019-05-12T22:18:05.307Z,2.03
2019-05-12T22:20:33.007Z,1.93
2019-05-12T22:23:09.137Z,1.93
2019-05-12T22:25:30.823Z,1.80
2019-05-12T22:27:59.103Z,2.27
2019-05-12T22:30:26.185Z,2.00
2019-05-12T22:32:54.126Z,2.10
2019-05-12T22:35:21.916Z,2.07
2019-05-12T22:37:48.504Z,1.83
2019-05-12T22:40:19.117Z,2.00
2019-05-12T22:42:44.533Z,2.20
2019-05-12T22:45:15.073Z,1.80
2019-05-12T22:47:40.135Z,2.00
2019-05-12T22:50:06.410Z,1.80
2019-05-12T22:52:38.677Z,2.17
2019-05-12T22:55:00.675Z,2.27
2019-05-12T22:57:29.288Z,1.77
2019-05-12T22:59:55.810Z,1.73
2019-05-12T23:02:28.044Z,2.07
2019-05-12T23:04:50.177Z,1.97
2019-05-12T23:07:19.098Z,2.00
2019-05-12T23:09:44.435Z,2.17
2019-05-12T23:12:18.119Z,2.23
2019-05-12T23:14:38.670Z,2.07
2019-05-12T23:17:05.689Z,2.20
2019-05-12T23:19:34.067Z,1.97
2019-05-12T23:22:00.299Z,2.00
2019-05-12T23:24:30.413Z,2.10
2019-05-12T23:26:54.596Z,2.27
2019-05-12T23:29:29.401Z,2.10
2019-05-12T23:31:49.036Z,2.10
2019-05-12T23:34:15.215Z,2.20
2019-05-12T23:36:41.389Z,2.00
2019-05-12T23:39:07.569Z,2.67
2019-05-12T23:41:34.394Z,2.10
2019-05-12T23:44:00.900Z,2.40
2019-05-12T23:46:27.093Z,2.00
2019-05-12T23:48:54.313Z,2.37
2019-05-12T23:51:20.849Z,2.43
2019-05-12T23:53:48.935Z,2.27
2019-05-12T23:56:15.079Z,2.23
2019-05-12T23:58:43.169Z,2.20
